Time;durP1;ratioP1;P1;durP2;ratioP2;P2;SDS_P1;SDS_P2;PMS_P1;PMS_P2;Temp;Humidity;BMP_temperature;BMP_pressure;BME280_temperature;BME280_humidity;BME280_pressure;Samples;Min_cycle;Max_cycle;Signal;HPM_P1;HPM_P2
2021/01/16 00:00:33;;;;;;;50.00;23.30;;;-2.20;99.90;;;;;;5050847;28;20117;-79
2021/01/16 00:02:59;;;;;;;47.50;22.03;;;-2.20;99.90;;;;;;5051552;28;20025;-78
2021/01/16 00:05:27;;;;;;;43.73;21.37;;;-2.20;99.90;;;;;;5048625;28;20103;-82
2021/01/16 00:08:10;;;;;;;42.17;19.00;;;-2.20;99.90;;;;;;5051258;28;20025;-79
2021/01/16 00:10:42;;;;;;;40.83;18.20;;;-2.20;99.90;;;;;;5050506;28;20036;-80
2021/01/16 00:13:13;;;;;;;44.40;19.30;;;-2.20;99.90;;;;;;5048751;28;20123;-78
2021/01/16 00:15:39;;;;;;;49.80;21.00;;;-2.10;99.90;;;;;;5050383;28;20032;-79
2021/01/16 00:18:10;;;;;;;44.07;20.03;;;-2.20;99.90;;;;;;5051173;28;20455;-78
2021/01/16 00:20:40;;;;;;;41.03;16.23;;;-2.20;99.90;;;;;;5050958;28;20061;-78
2021/01/16 00:23:05;;;;;;;;;;;-2.10;99.90;;;;;;5051557;28;20099;-77
2021/01/16 00:25:31;;;;;;;41.33;19.43;;;-2.10;99.90;;;;;;5048206;28;20015;-76
2021/01/16 00:27:58;;;;;;;43.63;19.13;;;-2.10;99.90;;;;;;5050192;28;20021;-76
2021/01/16 00:30:29;;;;;;;44.53;21.87;;;-2.10;99.90;;;;;;5048841;28;20024;-77
2021/01/16 00:32:55;;;;;;;48.57;20.70;;;-2.10;99.90;;;;;;5050202;28;20023;-77
2021/01/16 00:35:21;;;;;;;51.93;23.90;;;-2.10;99.90;;;;;;5050596;28;20507;-77
2021/01/16 00:37:50;;;;;;;48.23;20.93;;;-2.10;99.90;;;;;;5051472;28;20029;-78
2021/01/16 00:40:18;;;;;;;43.60;20.48;;;-2.10;99.90;;;;;;5050618;28;20021;-79
2021/01/16 00:42:47;;;;;;;46.70;20.67;;;-2.10;99.90;;;;;;5057424;28;20431;-77
2021/01/16 00:45:14;;;;;;;43.22;19.80;;;-2.10;99.90;;;;;;5048938;28;20068;-77
2021/01/16 00:47:41;;;;;;;42.67;17.33;;;-2.10;99.90;;;;;;5048028;28;20098;-77
2021/01/16 00:50:09;;;;;;;44.07;19.57;;;-2.10;99.90;;;;;;5033721;28;20500;-77
2021/01/16 00:52:35;;;;;;;42.97;19.80;;;-2.10;99.90;;;;;;5049553;28;20026;-77
2021/01/16 00:55:01;;;;;;;43.53;19.70;;;-2.10;99.90;;;;;;5029379;28;20029;-77
2021/01/16 00:57:27;;;;;;;48.40;21.93;;;-2.00;99.90;;;;;;5048134;28;20064;-79
2021/01/16 00:59:53;;;;;;;43.63;21.00;;;-2.00;99.90;;;;;;5048343;28;20040;-78
2021/01/16 01:02:19;;;;;;;43.30;20.10;;;-2.00;99.90;;;;;;5048806;28;20135;-76
2021/01/16 01:04:45;;;;;;;43.10;20.97;;;-2.00;99.90;;;;;;5047545;28;20036;-78
2021/01/16 01:07:11;;;;;;;48.40;21.90;;;-2.10;99.90;;;;;;5048233;28;20206;-78
2021/01/16 01:09:38;;;;;;;43.43;20.77;;;-2.00;99.90;;;;;;5049659;28;20025;-78
2021/01/16 01:12:04;;;;;;;39.60;18.80;;;-2.00;99.90;;;;;;5047031;28;20091;-77
2021/01/16 01:14:30;;;;;;;40.60;18.10;;;-2.00;99.90;;;;;;5046701;28;20075;-77
2021/01/16 01:16:56;;;;;;;44.30;20.50;;;-2.00;99.90;;;;;;5049298;28;20041;-75
2021/01/16 01:19:21;;;;;;;41.87;18.97;;;-2.00;99.90;;;;;;5047600;28;20040;-77
2021/01/16 01:21:47;;;;;;;40.87;19.27;;;-2.00;99.90;;;;;;5047374;28;20096;-76
2021/01/16 01:24:13;;;;;;;47.77;21.90;;;-2.00;99.90;;;;;;5046797;28;20037;-77
2021/01/16 01:26:38;;;;;;;44.13;21.23;;;-2.00;99.90;;;;;;5049428;28;20036;-77
2021/01/16 01:29:04;;;;;;;39.87;19.37;;;-2.00;99.90;;;;;;5059023;28;20031;-76
2021/01/16 01:31:30;;;;;;;39.77;17.73;;;-2.00;99.90;;;;;;5049372;28;20039;-76
2021/01/16 01:33:56;;;;;;;39.97;18.87;;;-2.00;99.90;;;;;;5046298;28;20037;-76
2021/01/16 01:36:21;;;;;;;40.20;19.00;;;-2.00;99.90;;;;;;5048393;28;20025;-77
2021/01/16 01:38:47;;;;;;;40.70;20.20;;;-2.00;99.90;;;;;;5048929;28;20045;-76
2021/01/16 01:41:13;;;;;;;43.30;19.87;;;-2.00;99.90;;;;;;5029329;28;20056;-77
2021/01/16 01:43:38;;;;;;;43.33;20.63;;;-2.00;99.90;;;;;;5027637;28;20386;-78
2021/01/16 01:46:04;;;;;;;40.90;20.60;;;-2.00;99.90;;;;;;5048355;28;20037;-78
2021/01/16 01:48:31;;;;;;;41.57;19.87;;;-2.10;99.90;;;;;;5048880;28;20029;-78
2021/01/16 01:50:59;;;;;;;43.40;20.77;;;-2.00;99.90;;;;;;5046200;28;20114;-77
2021/01/16 01:53:28;;;;;;;47.30;21.13;;;-2.10;99.90;;;;;;5046818;28;20040;-77
2021/01/16 01:55:56;;;;;;;42.42;20.05;;;-2.10;99.90;;;;;;5051461;28;20031;-77
2021/01/16 01:58:25;;;;;;;42.77;21.43;;;-2.10;99.90;;;;;;5047322;28;20033;-77
2021/01/16 02:00:53;;;;;;;40.17;17.55;;;-2.10;99.90;;;;;;5048332;28;20183;-78
2021/01/16 02:03:23;;;;;;;40.43;19.27;;;-2.10;99.90;;;;;;5048392;28;20409;-76
2021/01/16 02:05:56;;;;;;;42.33;19.60;;;-2.10;99.90;;;;;;5047838;28;20093;-78
2021/01/16 02:08:22;;;;;;;46.13;21.87;;;-2.10;99.90;;;;;;5030242;28;20033;-77
2021/01/16 02:10:48;;;;;;;44.47;19.93;;;-2.10;99.90;;;;;;5046746;28;20063;-77
2021/01/16 02:13:16;;;;;;;43.50;18.97;;;-2.10;99.90;;;;;;5039958;28;20477;-76
2021/01/16 02:16:13;;;;;;;43.07;20.30;;;-2.20;99.90;;;;;;5028071;28;20124;-77
2021/01/16 02:18:46;;;;;;;45.43;20.63;;;-2.10;99.90;;;;;;5026577;28;20042;-77
2021/01/16 02:21:18;;;;;;;43.40;19.43;;;-2.10;99.90;;;;;;5026771;28;20036;-78
2021/01/16 02:24:06;;;;;;;42.60;20.23;;;-2.20;99.90;;;;;;5036064;28;20053;-76
2021/01/16 02:26:47;;;;;;;42.13;19.83;;;-2.20;99.90;;;;;;5030474;28;20080;-76
2021/01/16 02:29:14;;;;;;;41.03;19.03;;;-2.10;99.90;;;;;;5030526;28;20025;-78
2021/01/16 02:31:48;;;;;;;39.47;19.10;;;-2.10;99.90;;;;;;5031227;28;20030;-76
2021/01/16 02:34:18;;;;;;;41.77;20.60;;;-2.10;99.90;;;;;;5032107;28;20037;-77
2021/01/16 02:37:02;;;;;;;;;;;-2.20;99.90;;;;;;5032692;28;20083;-76
2021/01/16 02:39:47;;;;;;;43.67;19.30;;;-2.20;99.90;;;;;;5031018;28;21114;-77
2021/01/16 02:42:25;;;;;;;36.63;16.00;;;-2.10;99.90;;;;;;5029821;28;20036;-77
2021/01/16 02:44:58;;;;;;;42.83;20.07;;;-2.10;99.90;;;;;;5030679;28;20121;-78
2021/01/16 02:47:40;;;;;;;39.10;18.57;;;-2.20;99.90;;;;;;5032496;28;20110;-77
2021/01/16 02:50:08;;;;;;;37.27;16.53;;;-2.10;99.90;;;;;;5029018;28;20041;-77
2021/01/16 02:52:45;;;;;;;38.53;17.43;;;-2.20;99.90;;;;;;5031530;28;20044;-78
2021/01/16 02:55:12;;;;;;;41.53;19.53;;;-2.20;99.90;;;;;;5031540;28;20028;-76
2021/01/16 02:57:38;;;;;;;38.17;18.03;;;-2.20;99.90;;;;;;5031876;28;20108;-76
2021/01/16 03:00:09;;;;;;;40.10;19.07;;;-2.20;99.90;;;;;;5030416;28;20041;-78
2021/01/16 03:02:34;;;;;;;39.37;18.90;;;-2.20;99.90;;;;;;5034760;28;20044;-77
2021/01/16 03:05:00;;;;;;;37.03;16.70;;;-2.20;99.90;;;;;;5030593;28;20370;-77
2021/01/16 03:07:28;;;;;;;40.00;19.67;;;-2.20;99.90;;;;;;5014043;28;20029;-76
2021/01/16 03:09:55;;;;;;;43.97;20.20;;;-2.20;99.90;;;;;;5030413;28;20034;-76
2021/01/16 03:12:20;;;;;;;45.73;20.60;;;-2.20;99.90;;;;;;5029658;28;20053;-77
2021/01/16 03:14:57;;;;;;;39.27;19.03;;;-2.20;99.90;;;;;;5030406;28;20111;-77
2021/01/16 03:17:42;;;;;;;37.60;17.80;;;-2.20;99.90;;;;;;5032102;28;20120;-77
2021/01/16 03:20:08;;;;;;;39.67;19.40;;;-2.20;99.90;;;;;;5030290;28;20041;-77
2021/01/16 03:22:34;;;;;;;38.87;19.50;;;-2.20;99.90;;;;;;5028166;28;20492;-77
2021/01/16 03:25:02;;;;;;;43.27;19.60;;;-2.20;99.90;;;;;;5030447;28;20135;-76
2021/01/16 03:27:28;;;;;;;37.67;16.93;;;-2.20;99.90;;;;;;5030955;28;20060;-78
2021/01/16 03:29:54;;;;;;;41.17;19.47;;;-2.20;99.90;;;;;;5034410;28;20049;-79
2021/01/16 03:32:20;;;;;;;41.43;18.90;;;-2.30;99.90;;;;;;5029864;28;20119;-77
2021/01/16 03:34:49;;;;;;;35.67;18.03;;;-2.20;99.90;;;;;;5028071;28;20025;-77
2021/01/16 03:37:16;;;;;;;40.10;18.08;;;-2.20;99.90;;;;;;5029933;28;20036;-76
2021/01/16 03:39:42;;;;;;;38.73;16.87;;;-2.20;99.90;;;;;;5031392;28;20033;-77
2021/01/16 03:42:09;;;;;;;40.70;17.83;;;-2.30;99.90;;;;;;5030072;28;20599;-77
2021/01/16 03:44:37;;;;;;;37.70;17.27;;;-2.30;99.90;;;;;;5029226;28;20556;-76
2021/01/16 03:47:04;;;;;;;38.43;17.27;;;-2.20;99.90;;;;;;5030816;28;20036;-77
2021/01/16 03:49:30;;;;;;;38.43;17.90;;;-2.20;99.90;;;;;;5030039;28;20116;-77
2021/01/16 03:51:55;;;;;;;38.50;17.77;;;-2.20;99.90;;;;;;5029610;28;20938;-77
2021/01/16 03:54:21;;;;;;;41.20;19.27;;;-2.20;99.90;;;;;;5029719;28;20021;-77
2021/01/16 03:56:48;;;;;;;39.10;16.27;;;-2.20;99.90;;;;;;5031040;28;20025;-76
2021/01/16 03:59:14;;;;;;;39.63;17.03;;;-2.20;99.90;;;;;;5029185;28;20041;-77
2021/01/16 04:01:40;;;;;;;44.37;19.93;;;-2.20;99.90;;;;;;5029782;28;20116;-76
2021/01/16 04:04:06;;;;;;;41.07;19.03;;;-2.20;99.90;;;;;;5030180;28;20560;-77
2021/01/16 04:06:31;;;;;;;39.83;18.53;;;-2.20;99.90;;;;;;5034330;28;20013;-77
2021/01/16 04:08:57;;;;;;;39.90;19.13;;;-2.20;99.90;;;;;;5032659;28;20034;-76
2021/01/16 04:11:23;;;;;;;40.77;18.60;;;-2.30;99.90;;;;;;5029648;28;20026;-77
2021/01/16 04:13:48;;;;;;;40.63;17.73;;;-2.30;99.90;;;;;;5043180;28;20539;-76
2021/01/16 04:16:14;;;;;;;39.33;18.30;;;-2.30;99.90;;;;;;5049219;28;20024;-76
2021/01/16 04:18:40;;;;;;;42.67;18.73;;;-2.30;99.90;;;;;;5050282;28;20090;-76
2021/01/16 04:21:06;;;;;;;41.10;18.27;;;-2.30;99.90;;;;;;5049949;28;20111;-76
2021/01/16 04:23:31;;;;;;;42.40;18.73;;;-2.30;99.90;;;;;;5048729;28;20061;-77
2021/01/16 04:25:57;;;;;;;37.60;16.97;;;-2.30;99.90;;;;;;5047076;28;20472;-76
2021/01/16 04:28:23;;;;;;;40.83;16.07;;;-2.30;99.90;;;;;;5050075;28;20041;-76
2021/01/16 04:30:49;;;;;;;41.20;18.93;;;-2.30;99.90;;;;;;5053892;28;20028;-77
2021/01/16 04:33:16;;;;;;;42.23;19.07;;;-2.20;99.90;;;;;;5050293;28;20124;-77
2021/01/16 04:35:42;;;;;;;34.80;16.07;;;-2.20;99.90;;;;;;5047639;28;20093;-77
2021/01/16 04:38:07;;;;;;;38.07;18.10;;;-2.20;99.90;;;;;;5049099;28;20060;-78
2021/01/16 04:40:33;;;;;;;39.73;17.47;;;-2.20;99.90;;;;;;5049555;28;20060;-76
2021/01/16 04:43:01;;;;;;;38.97;18.83;;;-2.20;99.90;;;;;;5062445;28;20028;-77
2021/01/16 04:45:27;;;;;;;40.33;19.03;;;-2.20;99.90;;;;;;5049640;28;20096;-77
2021/01/16 04:47:57;;;;;;;39.03;16.97;;;-2.20;99.90;;;;;;5047402;28;20032;-77
2021/01/16 04:50:25;;;;;;;;;;;-2.20;99.90;;;;;;5049412;28;20036;-77
2021/01/16 04:52:54;;;;;;;37.70;17.13;;;-2.20;99.90;;;;;;5049477;28;19908;-78
2021/01/16 04:55:20;;;;;;;38.72;18.77;;;-2.20;99.90;;;;;;5047065;28;20017;-77
2021/01/16 04:57:46;;;;;;;40.80;19.40;;;-2.20;99.90;;;;;;5049537;28;20049;-77
2021/01/16 05:00:13;;;;;;;37.10;18.83;;;-2.20;99.90;;;;;;5049340;28;20028;-77
2021/01/16 05:02:41;;;;;;;37.33;15.90;;;-2.20;99.90;;;;;;5049860;28;20051;-78
2021/01/16 05:05:13;;;;;;;37.30;17.00;;;-2.20;99.90;;;;;;5049786;28;20021;-77
2021/01/16 05:07:39;;;;;;;39.50;19.60;;;-2.20;99.90;;;;;;5049439;28;20098;-78
2021/01/16 05:10:07;;;;;;;47.60;19.60;;;-2.20;99.90;;;;;;5049918;28;20040;-77
2021/01/16 05:12:52;;;;;;;36.13;16.33;;;-2.20;99.90;;;;;;5047560;28;20025;-77
2021/01/16 05:15:22;;;;;;;38.60;16.07;;;-2.20;99.90;;;;;;5027109;28;20056;-77
2021/01/16 05:18:08;;;;;;;41.47;19.00;;;-2.20;99.90;;;;;;5030123;28;20045;-76
2021/01/16 05:20:35;;;;;;;33.93;15.57;;;-2.20;99.90;;;;;;5029610;28;20036;-77
2021/01/16 05:23:17;;;;;;;39.43;17.80;;;-2.20;99.90;;;;;;5029499;28;20389;-77
2021/01/16 05:25:49;;;;;;;34.67;16.60;;;-2.20;99.90;;;;;;5029226;28;20037;-77
2021/01/16 05:28:20;;;;;;;48.13;21.57;;;-2.30;99.90;;;;;;5028895;28;20025;-78
2021/01/16 05:30:51;;;;;;;37.50;17.90;;;-2.20;99.90;;;;;;5028498;28;20029;-78
2021/01/16 05:33:18;;;;;;;39.37;17.70;;;-2.20;99.90;;;;;;5025953;28;20049;-78
2021/01/16 05:35:44;;;;;;;37.83;18.77;;;-2.20;99.90;;;;;;5027312;28;20851;-76
2021/01/16 05:38:13;;;;;;;38.37;18.00;;;-2.20;99.90;;;;;;5028583;28;20033;-77
2021/01/16 05:40:39;;;;;;;33.75;16.58;;;-2.20;99.90;;;;;;5032763;28;20054;-75
2021/01/16 05:43:06;;;;;;;38.90;16.33;;;-2.20;99.90;;;;;;5030700;28;20044;-77
2021/01/16 05:45:35;;;;;;;38.20;19.30;;;-2.20;99.90;;;;;;5029054;28;20116;-76
2021/01/16 05:48:05;;;;;;;33.75;15.38;;;-2.20;99.90;;;;;;5028605;28;20041;-77
2021/01/16 05:50:38;;;;;;;35.73;16.40;;;-2.20;99.90;;;;;;5025357;28;20038;-77
2021/01/16 05:53:05;;;;;;;38.23;17.07;;;-2.30;99.90;;;;;;5026825;28;20022;-76
2021/01/16 05:55:32;;;;;;;38.80;17.83;;;-2.20;99.90;;;;;;5025739;28;20033;-77
2021/01/16 05:58:06;;;;;;;35.70;15.40;;;-2.30;99.90;;;;;;5027680;28;20025;-78
2021/01/16 06:00:39;;;;;;;20.63;9.27;;;-2.30;99.90;;;;;;5027241;28;20030;-77
2021/01/16 06:03:07;;;;;;;33.67;15.67;;;-2.40;99.90;;;;;;5027817;28;20032;-76
2021/01/16 06:05:35;;;;;;;32.33;14.73;;;-2.40;99.90;;;;;;5028453;28;20029;-77
2021/01/16 06:08:01;;;;;;;37.17;16.37;;;-2.40;99.90;;;;;;5028530;28;20215;-77
2021/01/16 06:10:30;;;;;;;30.40;13.87;;;-2.40;99.90;;;;;;5025876;28;20079;-77
2021/01/16 06:13:10;;;;;;;33.88;15.07;;;-2.40;99.90;;;;;;5011104;28;20505;-76
2021/01/16 06:15:43;;;;;;;39.40;17.83;;;-2.40;99.90;;;;;;5040654;28;20097;-76
2021/01/16 06:18:20;;;;;;;41.40;19.33;;;-2.40;99.90;;;;;;5051189;28;20033;-77
2021/01/16 06:20:52;;;;;;;31.53;13.23;;;-2.40;99.90;;;;;;5046403;28;20048;-76
2021/01/16 06:23:20;;;;;;;39.10;18.10;;;-2.40;99.90;;;;;;5029392;28;20033;-78
2021/01/16 06:25:57;;;;;;;30.67;13.53;;;-2.40;99.90;;;;;;5046598;28;20021;-78
2021/01/16 06:28:30;;;;;;;32.67;13.90;;;-2.40;99.90;;;;;;5048882;28;20086;-77
2021/01/16 06:30:57;;;;;;;29.60;11.73;;;-2.40;99.90;;;;;;5048023;28;20036;-78
2021/01/16 06:33:30;;;;;;;26.50;11.83;;;-2.40;99.90;;;;;;5048850;28;20384;-77
2021/01/16 06:35:57;;;;;;;34.87;15.50;;;-2.40;99.90;;;;;;5047795;28;20036;-77
2021/01/16 06:38:27;;;;;;;31.93;13.90;;;-2.40;99.90;;;;;;5052892;28;20150;-76
2021/01/16 06:40:54;;;;;;;34.47;15.20;;;-2.40;99.90;;;;;;5045518;28;20150;-77
2021/01/16 06:43:23;;;;;;;24.40;10.80;;;-2.40;99.90;;;;;;5047213;28;20037;-77
2021/01/16 06:45:49;;;;;;;30.73;13.80;;;-2.40;99.90;;;;;;5048335;28;20025;-76
2021/01/16 06:48:15;;;;;;;25.30;10.50;;;-2.40;99.90;;;;;;5047888;28;20029;-77
2021/01/16 06:50:40;;;;;;;25.93;10.87;;;-2.40;99.90;;;;;;5044929;28;20020;-77
2021/01/16 06:53:25;;;;;;;19.27;9.67;;;-2.50;99.90;;;;;;5047961;28;20457;-78
2021/01/16 06:56:07;;;;;;;17.93;8.57;;;-2.50;99.90;;;;;;5043787;28;20377;-78
2021/01/16 06:58:41;;;;;;;26.63;12.27;;;-2.50;99.90;;;;;;5048543;28;20433;-77
2021/01/16 07:01:11;;;;;;;28.63;11.77;;;-2.50;99.90;;;;;;5046995;28;20112;-78
2021/01/16 07:03:44;;;;;;;33.73;13.03;;;-2.50;99.90;;;;;;5047987;28;20484;-78
2021/01/16 07:06:10;;;;;;;34.70;15.73;;;-2.50;99.90;;;;;;5042795;28;20029;-76
2021/01/16 07:08:40;;;;;;;25.03;10.97;;;-2.50;99.90;;;;;;5048163;28;20429;-77
2021/01/16 07:11:08;;;;;;;33.97;15.33;;;-2.50;99.90;;;;;;5040074;28;20520;-76
2021/01/16 07:13:34;;;;;;;28.03;12.87;;;-2.50;99.90;;;;;;5041061;28;20058;-77
2021/01/16 07:16:04;;;;;;;36.57;15.40;;;-2.50;99.90;;;;;;5013497;28;20033;-77
2021/01/16 07:18:30;;;;;;;38.00;17.95;;;-2.50;99.90;;;;;;5030410;28;20037;-78
2021/01/16 07:20:59;;;;;;;33.93;14.93;;;-2.50;99.90;;;;;;5036906;28;20037;-77
2021/01/16 07:23:26;;;;;;;24.13;10.27;;;-2.50;99.90;;;;;;5034186;28;20036;-78
2021/01/16 07:25:53;;;;;;;27.77;12.60;;;-2.50;99.90;;;;;;5027177;28;20362;-77
2021/01/16 07:28:24;;;;;;;35.60;15.83;;;-2.50;99.90;;;;;;5030832;28;20999;-77
2021/01/16 07:30:50;;;;;;;35.70;15.70;;;-2.50;99.90;;;;;;5027481;28;20028;-77
2021/01/16 07:33:17;;;;;;;21.93;10.07;;;-2.50;99.90;;;;;;5032110;28;20396;-76
2021/01/16 07:35:50;;;;;;;31.97;14.87;;;-2.50;99.90;;;;;;5029445;28;20065;-77
2021/01/16 07:38:18;;;;;;;33.17;16.40;;;-2.50;99.90;;;;;;5025383;28;20131;-75
2021/01/16 07:40:46;;;;;;;28.53;12.23;;;-2.50;99.90;;;;;;5030746;28;20033;-78
2021/01/16 07:43:21;;;;;;;28.47;12.17;;;-2.50;99.90;;;;;;5030231;28;20036;-77
2021/01/16 07:45:49;;;;;;;38.43;16.83;;;-2.50;99.90;;;;;;5031328;28;20017;-76
2021/01/16 07:48:20;;;;;;;25.33;11.20;;;-2.50;99.90;;;;;;5031273;28;20025;-77
2021/01/16 07:50:51;;;;;;;18.67;9.60;;;-2.40;99.90;;;;;;5027978;28;20026;-76
2021/01/16 07:53:27;;;;;;;28.27;11.73;;;-2.50;99.90;;;;;;5031485;28;20021;-75
2021/01/16 07:56:22;;;;;;;33.17;14.90;;;-2.40;99.90;;;;;;5031958;28;20084;-76
2021/01/16 07:59:14;;;;;;;20.07;10.60;;;-2.40;99.90;;;;;;5027043;28;20038;-77
2021/01/16 08:01:39;;;;;;;38.63;17.53;;;-2.40;99.90;;;;;;4930867;29;20496;-76
2021/01/16 08:04:26;;;;;;;32.70;14.27;;;-2.40;99.90;;;;;;4929961;29;20043;-76
2021/01/16 08:07:09;;;;;;;33.90;15.50;;;-2.40;99.90;;;;;;4929612;29;20051;-79
2021/01/16 08:09:49;;;;;;;25.60;11.73;;;-2.40;99.90;;;;;;4939835;29;20059;-77
2021/01/16 08:12:20;;;;;;;28.97;13.23;;;-2.40;99.90;;;;;;4932559;29;20043;-77
2021/01/16 08:14:46;;;;;;;35.13;14.90;;;-2.40;99.90;;;;;;4930792;29;20514;-77
2021/01/16 08:17:38;;;;;;;32.90;14.93;;;-2.30;99.90;;;;;;4931175;29;20046;-78
2021/01/16 08:20:19;;;;;;;26.63;12.60;;;-2.20;99.90;;;;;;4933045;29;20056;-76
2021/01/16 08:22:51;;;;;;;31.60;14.93;;;-2.30;99.90;;;;;;4923502;29;20127;-77
2021/01/16 08:25:23;;;;;;;34.53;16.80;;;-2.20;99.90;;;;;;4930637;29;20039;-76
2021/01/16 08:27:54;;;;;;;16.23;9.73;;;-2.20;99.90;;;;;;4927535;29;20512;-77
2021/01/16 08:30:24;;;;;;;31.63;12.83;;;-2.20;99.90;;;;;;4935234;29;20050;-75
2021/01/16 08:33:01;;;;;;;34.83;16.30;;;-2.10;99.90;;;;;;4934980;29;20052;-77
2021/01/16 08:35:48;;;;;;;33.77;15.20;;;-2.10;99.90;;;;;;4930056;29;20047;-77
2021/01/16 08:38:16;;;;;;;29.50;12.97;;;-2.10;99.90;;;;;;4962355;28;20045;-76
2021/01/16 08:40:45;;;;;;;34.23;15.90;;;-2.10;99.90;;;;;;5029263;28;20029;-77
2021/01/16 08:43:11;;;;;;;29.60;12.93;;;-2.10;99.90;;;;;;5028165;28;20086;-76
2021/01/16 08:45:36;;;;;;;22.33;10.67;;;-2.10;99.90;;;;;;5027557;28;20497;-76
2021/01/16 08:48:02;;;;;;;26.30;11.33;;;-2.10;99.90;;;;;;5030371;28;20544;-78
2021/01/16 08:50:30;;;;;;;28.97;13.30;;;-2.10;99.90;;;;;;5028144;28;20045;-76
2021/01/16 08:52:56;;;;;;;29.27;12.10;;;-2.00;99.90;;;;;;5030167;28;20024;-77
2021/01/16 08:55:26;;;;;;;31.30;14.83;;;-1.90;99.90;;;;;;5028494;28;20396;-77
2021/01/16 08:58:09;;;;;;;26.90;14.33;;;-1.90;99.90;;;;;;5030954;28;20138;-78
2021/01/16 09:00:39;;;;;;;22.67;10.53;;;-1.80;99.90;;;;;;5029287;28;20100;-78
2021/01/16 09:03:12;;;;;;;28.30;13.33;;;-1.80;99.90;;;;;;5030716;28;20025;-78
2021/01/16 09:05:39;;;;;;;25.87;13.10;;;-1.80;99.90;;;;;;5029215;28;20188;-77
2021/01/16 09:08:19;;;;;;;23.50;11.50;;;-1.90;99.90;;;;;;5029028;28;20100;-78
2021/01/16 09:10:45;;;;;;;19.50;8.67;;;-1.90;99.90;;;;;;5028029;28;20033;-78
2021/01/16 09:13:30;;;;;;;25.40;10.67;;;-1.90;99.90;;;;;;5031390;28;20045;-77
2021/01/16 09:15:56;;;;;;;15.97;7.70;;;-1.90;99.90;;;;;;5010528;28;20477;-75
2021/01/16 09:18:23;;;;;;;24.90;9.77;;;-1.80;99.90;;;;;;5029482;28;20112;-78
2021/01/16 09:20:51;;;;;;;27.83;12.70;;;-1.90;99.90;;;;;;5028355;28;20026;-77
2021/01/16 09:23:27;;;;;;;22.20;9.73;;;-1.90;99.90;;;;;;5028984;28;20076;-77
2021/01/16 09:26:07;;;;;;;17.07;7.90;;;-1.90;99.90;;;;;;5029510;28;20026;-76
2021/01/16 09:29:01;;;;;;;29.47;13.00;;;-1.90;99.90;;;;;;5025554;28;20444;-77
2021/01/16 09:31:41;;;;;;;30.33;13.33;;;-1.70;99.90;;;;;;5029523;28;20033;-77
2021/01/16 09:34:12;;;;;;;29.50;12.73;;;-1.70;99.90;;;;;;5028876;28;20104;-78
2021/01/16 09:36:39;;;;;;;26.93;10.80;;;-1.60;99.90;;;;;;5031339;28;20021;-77
2021/01/16 09:39:17;;;;;;;26.30;12.77;;;-1.70;99.90;;;;;;5028671;28;20135;-77
2021/01/16 09:41:47;;;;;;;21.63;9.57;;;-1.70;99.90;;;;;;5027956;28;20392;-78
2021/01/16 09:44:14;;;;;;;20.17;8.80;;;-1.70;99.90;;;;;;5029803;28;20879;-78
2021/01/16 09:46:41;;;;;;;15.17;7.10;;;-1.70;99.90;;;;;;5029474;28;20029;-76
2021/01/16 09:49:09;;;;;;;29.77;13.83;;;-1.90;99.90;;;;;;5027583;28;20032;-76
2021/01/16 09:51:37;;;;;;;26.83;11.50;;;-1.80;99.90;;;;;;5030126;28;20041;-77
2021/01/16 09:54:30;;;;;;;24.93;10.97;;;-1.80;99.90;;;;;;5028076;28;20939;-76
2021/01/16 09:56:56;;;;;;;21.33;8.93;;;-1.70;99.90;;;;;;5028798;28;20464;-77
2021/01/16 09:59:24;;;;;;;15.70;7.70;;;-1.70;99.90;;;;;;5028433;28;20041;-76
2021/01/16 10:02:15;;;;;;;24.00;10.73;;;-1.80;99.90;;;;;;5029931;28;20440;-76
2021/01/16 10:04:43;;;;;;;23.63;11.77;;;-1.70;99.90;;;;;;5028747;28;20035;-76
2021/01/16 10:07:15;;;;;;;25.87;12.40;;;-1.60;99.90;;;;;;5025221;28;20065;-76
2021/01/16 10:09:46;;;;;;;12.13;6.47;;;-1.50;99.90;;;;;;5029646;28;20026;-76
2021/01/16 10:12:38;;;;;;;18.23;10.23;;;-1.60;99.90;;;;;;5011425;28;20030;-76
2021/01/16 10:15:07;;;;;;;24.90;12.07;;;-1.40;99.90;;;;;;5048741;28;20040;-77
2021/01/16 10:17:33;;;;;;;15.03;7.03;;;-1.40;99.90;;;;;;5049654;28;20037;-76
2021/01/16 10:20:10;;;;;;;22.03;9.43;;;-1.40;99.90;;;;;;5048830;28;20033;-77
2021/01/16 10:22:36;;;;;;;14.93;7.13;;;-1.40;99.90;;;;;;5047607;28;20033;-77
2021/01/16 10:25:10;;;;;;;20.93;9.53;;;-1.50;99.90;;;;;;5049193;28;20025;-77
2021/01/16 10:27:46;;;;;;;12.97;6.00;;;-1.40;99.90;;;;;;5049766;28;20029;-78
2021/01/16 10:30:19;;;;;;;16.30;8.23;;;-1.40;99.90;;;;;;5049218;28;20488;-75
2021/01/16 10:32:45;;;;;;;18.43;9.40;;;-1.40;99.90;;;;;;5049098;28;20124;-77
2021/01/16 10:35:26;;;;;;;20.50;9.33;;;-1.30;99.90;;;;;;5047675;28;20021;-75
2021/01/16 10:37:54;;;;;;;21.93;10.70;;;-1.20;99.90;;;;;;5047393;28;20033;-76
2021/01/16 10:40:20;;;;;;;17.00;8.63;;;-1.10;99.90;;;;;;5048281;28;20025;-77
2021/01/16 10:42:48;;;;;;;19.60;9.87;;;-1.00;99.90;;;;;;5053894;28;20052;-73
2021/01/16 10:45:18;;;;;;;14.53;6.07;;;-1.00;99.90;;;;;;5049110;28;20030;-75
2021/01/16 10:47:45;;;;;;;14.20;7.03;;;-1.30;99.90;;;;;;5051473;28;20105;-76
2021/01/16 10:50:29;;;;;;;13.47;6.50;;;-1.40;99.90;;;;;;5046443;28;20430;-78
2021/01/16 10:53:02;;;;;;;10.10;5.27;;;-1.50;99.90;;;;;;5050390;28;20033;-75
2021/01/16 10:55:51;;;;;;;22.37;11.20;;;-1.40;99.90;;;;;;5053408;28;20415;-75
2021/01/16 10:58:24;;;;;;;12.67;5.67;;;-1.20;99.90;;;;;;5052016;28;20033;-76
2021/01/16 11:00:57;;;;;;;11.67;5.63;;;-1.40;99.90;;;;;;5052640;28;20085;-75
2021/01/16 11:03:28;;;;;;;18.87;7.67;;;-1.40;99.90;;;;;;5050474;28;20649;-74
2021/01/16 11:06:04;;;;;;;21.10;8.90;;;-1.20;99.90;;;;;;5049429;28;20043;-79
2021/01/16 11:08:32;;;;;;;10.60;5.30;;;-1.20;99.90;;;;;;5050845;28;20040;-80
2021/01/16 11:10:59;;;;;;;19.10;9.63;;;-1.20;99.90;;;;;;5063890;28;20025;-79
2021/01/16 11:13:29;;;;;;;18.40;7.80;;;-1.20;99.90;;;;;;5061868;28;20068;-79
2021/01/16 11:15:56;;;;;;;21.80;9.97;;;-1.10;99.90;;;;;;5067058;28;20037;-79
2021/01/16 11:18:28;;;;;;;21.63;9.37;;;-1.10;99.90;;;;;;5069432;28;20104;-81
2021/01/16 11:21:02;;;;;;;17.23;8.50;;;-1.10;99.90;;;;;;5034794;28;20076;-76
2021/01/16 11:23:43;;;;;;;22.53;10.07;;;-1.20;99.90;;;;;;5049254;28;20368;-77
2021/01/16 11:26:14;;;;;;;19.23;8.40;;;-1.20;99.90;;;;;;5051337;28;20017;-76
2021/01/16 11:28:56;;;;;;;19.07;8.60;;;-1.30;99.90;;;;;;5050951;28;20060;-74
2021/01/16 11:31:35;;;;;;;24.30;10.93;;;-1.30;99.90;;;;;;5051475;28;20028;-80
2021/01/16 11:34:09;;;;;;;24.83;12.57;;;-1.00;99.90;;;;;;5051948;28;20025;-81
2021/01/16 11:36:51;;;;;;;24.63;10.63;;;-0.80;99.90;;;;;;5046805;28;20055;-77
2021/01/16 11:39:43;;;;;;;20.23;9.13;;;-0.70;99.90;;;;;;5051296;28;20033;-77
2021/01/16 11:42:10;;;;;;;25.67;12.00;;;-0.90;99.90;;;;;;5047605;28;20060;-76
2021/01/16 11:44:52;;;;;;;22.07;9.93;;;-0.90;99.90;;;;;;5050714;28;20064;-78
2021/01/16 11:47:18;;;;;;;26.27;12.83;;;-1.10;99.90;;;;;;5055873;28;20037;-81
2021/01/16 11:49:45;;;;;;;27.53;11.67;;;-1.10;99.90;;;;;;5050956;28;20025;-76
2021/01/16 11:52:12;;;;;;;25.80;12.80;;;-0.90;99.90;;;;;;5051538;28;20021;-75
2021/01/16 11:54:37;;;;;;;24.70;11.97;;;-0.80;99.90;;;;;;5047487;28;20021;-77
2021/01/16 11:57:04;;;;;;;28.07;12.87;;;-0.70;99.90;;;;;;5050662;28;20483;-78
2021/01/16 11:59:31;;;;;;;24.10;10.43;;;-0.80;99.90;;;;;;5034072;28;20048;-79
2021/01/16 12:01:57;;;;;;;14.90;7.13;;;-0.90;99.90;;;;;;5051430;28;20025;-77
2021/01/16 12:04:23;;;;;;;27.97;8.73;;;-0.90;99.90;;;;;;5050651;28;20102;-78
2021/01/16 12:06:51;;;;;;;19.20;7.53;;;-1.00;99.90;;;;;;5051323;28;20025;-77
2021/01/16 12:09:17;;;;;;;19.70;8.73;;;-1.10;99.90;;;;;;5050314;28;20521;-76
2021/01/16 12:11:52;;;;;;;22.53;10.03;;;-1.20;99.90;;;;;;5050110;28;20044;-77
2021/01/16 12:14:17;;;;;;;21.07;10.37;;;-1.10;99.90;;;;;;5036640;28;20054;-78
2021/01/16 12:16:44;;;;;;;19.37;8.70;;;-0.90;99.90;;;;;;5030532;28;20034;-77
2021/01/16 12:19:14;;;;;;;23.00;11.63;;;-0.70;99.90;;;;;;5028017;28;20812;-75
2021/01/16 12:21:45;;;;;;;23.10;10.85;;;-0.70;99.90;;;;;;5029022;28;20477;-76
2021/01/16 12:24:13;;;;;;;21.30;9.80;;;-0.50;99.90;;;;;;5029456;28;20033;-76
2021/01/16 12:26:47;;;;;;;23.63;10.90;;;-0.30;99.90;;;;;;5029474;28;20029;-77
2021/01/16 12:29:25;;;;;;;25.83;11.73;;;-0.30;99.90;;;;;;5029585;28;20033;-77
2021/01/16 12:32:06;;;;;;;18.00;8.70;;;-0.30;99.90;;;;;;5029605;28;20091;-79
2021/01/16 12:34:31;;;;;;;21.03;9.70;;;-0.40;99.90;;;;;;5028732;28;20048;-76
2021/01/16 12:36:57;;;;;;;20.37;7.33;;;-0.40;99.90;;;;;;5030771;28;20029;-78
2021/01/16 12:39:23;;;;;;;20.83;10.47;;;-0.40;99.90;;;;;;5033057;28;20037;-78
2021/01/16 12:41:50;;;;;;;21.67;10.00;;;-0.60;99.90;;;;;;5031874;28;20091;-76
2021/01/16 12:44:22;;;;;;;15.10;6.87;;;-0.70;99.90;;;;;;5029060;28;20038;-76
2021/01/16 12:46:50;;;;;;;19.73;8.43;;;-0.90;99.90;;;;;;5030922;28;20335;-77